createdAt,value
2017-12-02T00:01:55.076Z,78.58
2017-12-02T00:03:57.493Z,78.42
2017-12-02T00:05:59.834Z,78.29
2017-12-02T00:08:02.054Z,78.59
2017-12-02T00:10:04.053Z,78.27
2017-12-02T00:12:06.061Z,78.60
2017-12-02T00:14:08.116Z,78.52
2017-12-02T00:16:10.229Z,78.63
2017-12-02T00:18:12.239Z,78.42
2017-12-02T00:20:14.235Z,78.47
2017-12-02T00:22:16.202Z,78.57
2017-12-02T00:24:18.174Z,78.54
2017-12-02T00:26:20.197Z,78.60
2017-12-02T00:28:22.211Z,78.60
2017-12-02T00:30:24.239Z,78.61
2017-12-02T00:32:26.068Z,78.38
2017-12-02T00:34:28.233Z,78.64
2017-12-02T00:36:30.211Z,78.44
2017-12-02T00:38:32.211Z,78.62
2017-12-02T00:40:35.199Z,78.64
2017-12-02T00:42:37.202Z,78.52
2017-12-02T00:44:39.072Z,78.68
2017-12-02T00:46:41.092Z,78.50
2017-12-02T00:48:43.045Z,78.65
2017-12-02T00:50:45.002Z,78.52
2017-12-02T00:52:46.977Z,78.69
2017-12-02T00:54:48.425Z,78.67
2017-12-02T00:56:50.218Z,78.77
2017-12-02T00:58:52.100Z,78.67
2017-12-02T01:00:54.056Z,78.67
2017-12-02T01:02:56.086Z,78.82
2017-12-02T01:04:58.203Z,78.81
2017-12-02T01:07:00.221Z,78.80
2017-12-02T01:09:02.268Z,78.91
2017-12-02T01:11:07.268Z,79.02
2017-12-02T01:13:09.272Z,79.00
2017-12-02T01:15:11.224Z,79.02
2017-12-02T01:17:13.226Z,78.96
2017-12-02T01:19:15.213Z,78.97
2017-12-02T01:21:17.234Z,79.08
2017-12-02T01:25:12.682Z,79.07
2017-12-02T01:27:14.498Z,79.16
2017-12-02T01:29:16.876Z,79.07
2017-12-02T01:39:40.715Z,79.19
2017-12-02T01:41:42.754Z,79.09
2017-12-02T01:43:44.550Z,79.05
2017-12-02T01:45:46.911Z,79.11
2017-12-02T01:47:49.269Z,79.13
2017-12-02T01:49:51.951Z,79.11
2017-12-02T02:00:09.554Z,79.07
2017-12-02T02:05:28.068Z,79.00
2017-12-02T02:07:30.802Z,79.03
2017-12-02T02:09:32.571Z,78.85
2017-12-02T02:11:35.336Z,79.03
2017-12-02T02:13:37.392Z,78.84
2017-12-02T02:15:39.668Z,78.93
2017-12-02T02:17:42.322Z,78.94
2017-12-02T02:19:44.708Z,78.94
2017-12-02T02:21:46.248Z,78.86
2017-12-02T02:23:48.235Z,78.84
2017-12-02T02:25:50.251Z,78.91
2017-12-02T02:27:52.257Z,78.99
2017-12-02T02:29:54.206Z,78.90
2017-12-02T02:31:56.220Z,78.83
2017-12-02T02:33:58.297Z,78.88
2017-12-02T02:36:00.233Z,78.99
2017-12-02T02:38:02.209Z,78.97
2017-12-02T02:40:04.201Z,78.99
2017-12-02T02:42:06.370Z,78.99
2017-12-02T02:44:08.241Z,78.99
2017-12-02T02:46:10.145Z,78.95
2017-12-02T02:48:46.890Z,79.00
2017-12-02T02:50:49.376Z,79.09
2017-12-02T02:52:51.274Z,79.10
2017-12-02T02:54:53.515Z,79.06
2017-12-02T02:56:55.858Z,79.15
2017-12-02T02:58:57.928Z,79.24
2017-12-02T03:01:00.091Z,79.12
2017-12-02T03:03:02.690Z,79.17
2017-12-02T03:05:04.724Z,79.22
2017-12-02T03:07:10.755Z,79.19
2017-12-02T03:09:12.849Z,79.15
2017-12-02T03:11:14.923Z,79.15
2017-12-02T03:21:41.318Z,79.21
2017-12-02T03:23:43.788Z,79.25
2017-12-02T03:25:45.851Z,79.28
2017-12-02T03:27:48.314Z,79.29
2017-12-02T03:29:50.719Z,79.29
2017-12-02T03:31:52.821Z,79.33
2017-12-02T03:57:40.670Z,79.48
2017-12-02T03:59:42.952Z,79.44
2017-12-02T04:01:44.670Z,79.44
2017-12-02T04:03:46.228Z,79.34
2017-12-02T04:05:48.239Z,79.34
2017-12-02T04:07:50.222Z,79.38
2017-12-02T04:09:52.242Z,79.37
2017-12-02T04:11:54.231Z,79.44
2017-12-02T04:13:56.227Z,79.47
2017-12-02T04:15:58.193Z,79.51
2017-12-02T04:18:00.215Z,79.45
2017-12-02T04:20:02.221Z,79.38
2017-12-02T04:22:04.235Z,79.46
2017-12-02T04:24:06.250Z,79.47
2017-12-02T04:26:08.245Z,79.48
2017-12-02T04:28:10.222Z,79.54
2017-12-02T04:30:12.222Z,79.50
2017-12-02T04:32:14.246Z,79.51
2017-12-02T04:34:16.247Z,79.41
2017-12-02T04:36:18.411Z,79.45
2017-12-02T04:38:20.293Z,79.52
2017-12-02T04:40:22.299Z,79.50
2017-12-02T04:42:24.254Z,79.50
2017-12-02T04:44:26.276Z,79.45
2017-12-02T04:46:28.241Z,79.43
2017-12-02T04:48:30.236Z,79.46
2017-12-02T04:50:32.225Z,79.52
2017-12-02T04:52:34.210Z,79.50
2017-12-02T04:54:36.251Z,79.59
2017-12-02T04:56:38.233Z,79.47
2017-12-02T04:58:40.253Z,79.52
2017-12-02T05:00:42.254Z,79.53
2017-12-02T05:02:44.269Z,79.54
2017-12-02T05:04:46.272Z,79.61
2017-12-02T05:06:48.228Z,79.50
2017-12-02T05:08:50.279Z,79.55
2017-12-02T05:10:52.227Z,79.55
2017-12-02T05:12:54.309Z,79.56
2017-12-02T05:16:31.591Z,79.65
2017-12-02T05:18:33.734Z,79.64
2017-12-02T05:20:35.990Z,79.65
2017-12-02T05:22:38.214Z,79.67
2017-12-02T05:24:40.738Z,79.64
2017-12-02T05:26:42.914Z,79.62
2017-12-02T05:28:44.970Z,79.65
2017-12-02T05:30:46.936Z,79.69
2017-12-02T05:32:48.993Z,79.59
2017-12-02T05:34:51.217Z,79.70
2017-12-02T05:36:53.830Z,79.66
2017-12-02T05:38:55.916Z,79.68
2017-12-02T05:40:58.580Z,79.69
2017-12-02T05:45:03.247Z,79.52
2017-12-02T05:47:05.238Z,79.48
2017-12-02T05:49:07.556Z,79.46
2017-12-02T05:51:09.927Z,79.45
2017-12-02T05:53:11.995Z,79.39
2017-12-02T05:55:14.968Z,79.43
2017-12-02T05:57:16.838Z,79.44
2017-12-02T05:59:19.011Z,79.49
2017-12-02T06:01:21.374Z,79.42
2017-12-02T06:03:23.954Z,79.47
2017-12-02T06:05:25.895Z,79.38
2017-12-02T06:07:27.959Z,79.35
2017-12-02T06:09:29.820Z,79.37
2017-12-02T06:11:31.941Z,79.45
2017-12-02T06:13:34.021Z,79.54
2017-12-02T06:15:36.085Z,79.49
2017-12-02T06:17:38.698Z,79.43
2017-12-02T06:19:40.869Z,79.41
2017-12-02T06:21:42.777Z,79.40
2017-12-02T06:23:45.048Z,79.38
2017-12-02T06:25:47.290Z,79.50
2017-12-02T06:27:49.799Z,79.46
2017-12-02T06:29:51.906Z,79.47
2017-12-02T06:31:53.762Z,79.38
2017-12-02T06:33:55.533Z,79.40
2017-12-02T06:35:57.897Z,79.40
2017-12-02T06:38:00.210Z,79.43
2017-12-02T06:40:02.946Z,79.41
2017-12-02T06:42:05.077Z,79.31
2017-12-02T06:45:36.744Z,79.31
2017-12-02T06:47:38.741Z,79.40
2017-12-02T06:49:40.925Z,79.32
2017-12-02T06:51:43.208Z,79.16
2017-12-02T06:53:45.856Z,79.38
2017-12-02T06:55:47.770Z,79.40
2017-12-02T06:57:49.867Z,79.41
2017-12-02T06:59:52.035Z,79.39
2017-12-02T07:01:54.300Z,79.38
2017-12-02T07:03:56.866Z,79.37
2017-12-02T07:05:59.565Z,79.23
2017-12-02T07:08:01.627Z,79.27
2017-12-02T07:10:03.935Z,79.30
2017-12-02T07:12:06.693Z,79.36
2017-12-02T07:14:08.731Z,79.45
2017-12-02T07:16:10.503Z,79.36
2017-12-02T07:18:12.858Z,79.36
2017-12-02T07:20:15.428Z,79.42
2017-12-02T07:22:17.217Z,79.41
2017-12-02T07:24:19.286Z,79.52
2017-12-02T07:26:21.920Z,79.51
2017-12-02T07:28:24.029Z,79.51
2017-12-02T07:30:26.203Z,79.46
2017-12-02T07:32:28.723Z,79.49
2017-12-02T07:34:31.009Z,79.45
2017-12-02T07:36:33.112Z,79.42
2017-12-02T07:38:35.800Z,79.39
2017-12-02T07:40:37.771Z,79.41
2017-12-02T07:42:39.759Z,79.47
2017-12-02T07:44:41.719Z,79.47
2017-12-02T07:46:43.578Z,79.52
2017-12-02T07:48:45.821Z,79.44
2017-12-02T07:50:47.910Z,79.36
2017-12-02T07:52:50.388Z,79.27
2017-12-02T07:54:52.953Z,79.37
2017-12-02T07:56:54.792Z,79.37
2017-12-02T07:58:56.970Z,79.33
2017-12-02T08:00:59.118Z,79.37
2017-12-02T08:03:01.705Z,79.34
2017-12-02T08:05:03.784Z,79.38
2017-12-02T08:07:06.465Z,79.33
2017-12-02T08:09:08.718Z,79.36
2017-12-02T08:11:10.871Z,79.43
2017-12-02T08:13:13.093Z,79.33
2017-12-02T08:15:17.998Z,79.38
2017-12-02T08:18:14.005Z,79.33
2017-12-02T08:20:16.221Z,79.36
2017-12-02T08:22:18.832Z,79.32
2017-12-02T08:24:21.070Z,79.31
2017-12-02T08:26:23.692Z,79.28
2017-12-02T08:28:25.835Z,79.28
2017-12-02T08:30:28.122Z,79.30
2017-12-02T08:32:30.795Z,79.32
2017-12-02T08:34:32.955Z,79.32
2017-12-02T08:36:34.992Z,79.42
2017-12-02T08:38:36.928Z,79.40
2017-12-02T08:40:38.846Z,79.39
2017-12-02T08:42:40.899Z,79.32
2017-12-02T08:44:43.395Z,79.32
2017-12-02T08:46:45.837Z,79.21
2017-12-02T08:48:48.009Z,79.19
2017-12-02T08:50:50.704Z,79.17
2017-12-02T08:52:52.961Z,79.17
2017-12-02T08:54:55.284Z,79.24
2017-12-02T08:56:57.728Z,79.18
2017-12-02T08:58:59.946Z,79.24
2017-12-02T09:01:02.231Z,79.15
2017-12-02T09:03:04.702Z,79.29
2017-12-02T09:05:06.960Z,79.25
2017-12-02T09:07:09.069Z,79.15
2017-12-02T09:09:11.700Z,79.28
2017-12-02T09:11:13.762Z,79.27
2017-12-02T09:13:15.927Z,79.35
2017-12-02T09:15:19.742Z,79.25
2017-12-02T09:17:21.798Z,79.34
2017-12-02T09:19:24.697Z,79.30
2017-12-02T09:21:26.807Z,79.32
2017-12-02T09:23:28.895Z,79.26
2017-12-02T09:25:31.586Z,79.32
2017-12-02T09:27:33.939Z,79.35
2017-12-02T09:29:35.772Z,79.26
2017-12-02T09:31:38.065Z,79.21
2017-12-02T09:33:40.853Z,79.19
2017-12-02T09:35:42.915Z,79.12
2017-12-02T09:37:45.409Z,79.16
2017-12-02T09:39:47.854Z,79.23
2017-12-02T09:41:50.098Z,79.20
2017-12-02T09:43:52.688Z,79.15
2017-12-02T09:45:54.865Z,79.26
2017-12-02T09:47:57.015Z,79.26
2017-12-02T09:49:59.240Z,79.29
2017-12-02T09:52:01.567Z,79.27
2017-12-02T09:54:04.851Z,79.28
2017-12-02T09:56:06.883Z,79.22
2017-12-02T09:58:08.971Z,79.21
2017-12-02T10:00:11.224Z,79.31
2017-12-02T10:02:13.727Z,79.23
2017-12-02T10:19:05.842Z,79.23
2017-12-02T10:21:08.443Z,79.14
2017-12-02T10:23:11.000Z,79.17
2017-12-02T10:32:58.799Z,79.17
2017-12-02T10:35:00.960Z,79.21
2017-12-02T10:37:03.454Z,79.07
2017-12-02T10:39:05.930Z,79.02
2017-12-02T10:41:08.393Z,79.01
2017-12-02T10:43:11.009Z,79.02
2017-12-02T10:45:13.538Z,79.11
2017-12-02T10:47:15.789Z,78.94
2017-12-02T10:49:17.745Z,79.00
2017-12-02T10:52:55.589Z,79.07
2017-12-02T10:54:58.562Z,79.09
2017-12-02T10:57:00.919Z,79.03
2017-12-02T10:59:03.065Z,79.00
2017-12-02T11:01:05.429Z,78.97
2017-12-02T11:03:07.766Z,78.97
2017-12-02T11:05:10.104Z,78.89
2017-12-02T11:07:12.645Z,78.91
2017-12-02T11:09:14.960Z,78.97
2017-12-02T11:11:17.437Z,79.00
2017-12-02T11:13:19.732Z,79.05
2017-12-02T11:15:21.777Z,78.99
2017-12-02T11:17:23.912Z,78.94
2017-12-02T11:19:26.123Z,78.95
2017-12-02T11:21:28.595Z,78.92
2017-12-02T11:23:30.730Z,78.94
2017-12-02T11:25:32.905Z,78.87
2017-12-02T11:27:34.843Z,78.93
2017-12-02T11:29:36.910Z,78.91
2017-12-02T11:31:38.870Z,78.84
2017-12-02T11:33:40.768Z,78.92
2017-12-02T11:35:42.886Z,78.98
2017-12-02T11:46:05.327Z,78.92
2017-12-02T11:48:07.356Z,78.98
2017-12-02T11:50:09.815Z,79.00
2017-12-02T11:52:12.427Z,79.03
2017-12-02T11:54:14.887Z,79.04
2017-12-02T12:04:48.874Z,79.01
2017-12-02T12:15:13.752Z,79.01
2017-12-02T12:17:16.082Z,79.07
2017-12-02T12:19:18.588Z,79.10
2017-12-02T12:21:20.746Z,79.11
2017-12-02T12:23:22.706Z,79.17
2017-12-02T12:25:24.849Z,79.14
2017-12-02T12:27:26.829Z,79.12
2017-12-02T12:29:29.003Z,79.13
2017-12-02T12:31:31.577Z,79.17
2017-12-02T12:33:33.807Z,79.15
2017-12-02T12:35:36.411Z,79.14
2017-12-02T12:37:38.211Z,79.16
2017-12-02T12:39:40.429Z,79.16
2017-12-02T12:41:42.664Z,79.23
2017-12-02T12:43:44.855Z,79.21
2017-12-02T12:45:46.966Z,79.24
2017-12-02T12:47:49.405Z,79.23
2017-12-02T12:49:51.659Z,79.25
2017-12-02T12:51:53.946Z,79.26
2017-12-02T12:53:57.551Z,79.20
2017-12-02T12:58:05.569Z,79.17
2017-12-02T13:00:07.833Z,79.23
2017-12-02T13:02:10.436Z,79.28
2017-12-02T13:04:12.871Z,79.31
2017-12-02T13:14:39.859Z,79.27
2017-12-02T13:16:43.888Z,79.26
2017-12-02T13:18:46.459Z,79.24
2017-12-02T13:20:48.278Z,79.28
2017-12-02T13:22:50.579Z,79.32
2017-12-02T13:24:52.945Z,79.24
2017-12-02T13:26:54.968Z,79.27
2017-12-02T13:28:57.700Z,79.28
2017-12-02T13:30:59.952Z,79.30
2017-12-02T13:33:02.422Z,79.33
2017-12-02T13:35:04.723Z,79.30
2017-12-02T13:37:06.769Z,79.27
2017-12-02T13:39:09.538Z,79.33
2017-12-02T13:41:11.895Z,79.26
2017-12-02T13:43:14.584Z,79.28
2017-12-02T13:45:17.575Z,79.28
2017-12-02T13:47:19.719Z,79.21
2017-12-02T13:49:21.778Z,79.24
2017-12-02T13:51:23.755Z,79.21
2017-12-02T13:53:25.920Z,79.23
2017-12-02T13:55:28.808Z,79.20
2017-12-02T13:57:30.866Z,79.23
2017-12-02T13:59:33.211Z,79.28
2017-12-02T14:01:35.804Z,79.28
2017-12-02T14:03:38.496Z,79.29
2017-12-02T14:05:40.852Z,79.27
2017-12-02T14:07:43.447Z,79.24
2017-12-02T14:09:45.503Z,79.25
2017-12-02T14:11:47.364Z,79.27
2017-12-02T14:13:49.931Z,79.31
2017-12-02T14:15:52.059Z,79.28
2017-12-02T14:17:54.583Z,79.28
2017-12-02T14:19:56.924Z,79.28
2017-12-02T14:21:59.082Z,79.28
2017-12-02T14:24:01.675Z,79.21
2017-12-02T14:26:03.846Z,79.29
2017-12-02T14:28:06.412Z,79.28
2017-12-02T14:32:29.220Z,79.26
2017-12-02T14:34:31.552Z,79.25
2017-12-02T14:36:33.801Z,79.28
2017-12-02T14:38:35.759Z,79.26
2017-12-02T14:40:37.806Z,79.28
2017-12-02T14:42:39.968Z,79.29
2017-12-02T14:44:42.072Z,79.28
2017-12-02T14:46:44.726Z,79.36
2017-12-02T14:48:47.284Z,79.28
2017-12-02T14:50:49.456Z,79.31
2017-12-02T14:55:04.573Z,79.27
2017-12-02T14:57:09.693Z,79.24
2017-12-02T14:59:11.740Z,79.27
2017-12-02T15:01:13.932Z,79.28
2017-12-02T15:03:16.244Z,79.29
2017-12-02T15:05:36.775Z,79.31
2017-12-02T15:07:38.950Z,79.34
2017-12-02T15:11:06.526Z,79.23
2017-12-02T15:13:08.982Z,79.23
2017-12-02T15:15:11.357Z,79.23
2017-12-02T15:17:13.414Z,79.21
2017-12-02T15:19:15.678Z,79.26
2017-12-02T15:21:17.098Z,79.26
2017-12-02T15:23:19.291Z,79.24
2017-12-02T15:27:06.436Z,79.26
2017-12-02T15:29:08.695Z,79.31
2017-12-02T15:33:45.099Z,78.02
2017-12-02T15:35:47.455Z,78.28
2017-12-02T15:37:49.726Z,78.46
2017-12-02T15:39:52.692Z,78.54
2017-12-02T15:41:54.739Z,78.35
2017-12-02T15:43:56.916Z,78.05
2017-12-02T15:45:58.996Z,78.10
2017-12-02T15:48:01.224Z,78.04
2017-12-02T15:50:03.755Z,78.03
2017-12-02T15:52:05.875Z,78.05
2017-12-02T15:54:08.879Z,77.95
2017-12-02T15:56:10.924Z,78.03
2017-12-02T15:58:13.455Z,78.00
2017-12-02T16:00:15.880Z,77.91
2017-12-02T16:02:17.831Z,78.00
2017-12-02T16:04:19.884Z,77.96
2017-12-02T16:06:21.862Z,77.88
2017-12-02T16:08:24.116Z,77.97
2017-12-02T16:10:26.260Z,77.97
2017-12-02T16:12:28.446Z,77.86
2017-12-02T16:14:51.277Z,77.97
2017-12-02T16:16:53.485Z,77.84
2017-12-02T16:18:55.732Z,77.94
2017-12-02T16:20:57.779Z,78.00
2017-12-02T16:25:36.214Z,77.77
2017-12-02T16:27:38.411Z,77.61
2017-12-02T16:29:40.588Z,77.71
2017-12-02T16:31:42.723Z,77.80
2017-12-02T16:33:44.713Z,77.70
2017-12-02T16:35:47.384Z,77.79
2017-12-02T16:37:49.553Z,77.62
2017-12-02T16:39:51.712Z,77.66
2017-12-02T16:41:53.566Z,77.68
2017-12-02T16:43:55.738Z,77.69
2017-12-02T16:45:58.311Z,77.67
2017-12-02T16:48:00.699Z,77.74
2017-12-02T16:50:02.851Z,77.80
2017-12-02T16:52:04.916Z,77.75
2017-12-02T16:54:06.833Z,77.67
2017-12-02T16:56:09.251Z,77.73
2017-12-02T16:58:11.422Z,77.74
2017-12-02T17:00:13.604Z,77.67
2017-12-02T17:02:15.947Z,77.72
2017-12-02T17:04:18.125Z,77.66
2017-12-02T17:06:20.675Z,77.72
2017-12-02T17:08:22.859Z,77.56
2017-12-02T17:10:24.741Z,77.79
2017-12-02T17:12:26.889Z,77.79
2017-12-02T17:14:28.822Z,77.73
2017-12-02T17:16:30.790Z,77.79
2017-12-02T17:18:34.132Z,77.53
2017-12-02T17:20:36.516Z,77.61
2017-12-02T17:22:38.795Z,77.57
2017-12-02T17:24:40.790Z,77.76
2017-12-02T17:26:43.011Z,77.67
2017-12-02T17:28:45.336Z,77.84
2017-12-02T17:30:47.702Z,77.69
2017-12-02T17:32:53.358Z,77.60
2017-12-02T17:34:55.724Z,77.54
2017-12-02T17:45:15.875Z,77.73
2017-12-02T17:47:17.832Z,77.54
2017-12-02T17:49:20.008Z,77.60
2017-12-02T17:51:22.067Z,77.68
2017-12-02T17:53:24.290Z,77.62
2017-12-02T18:03:46.265Z,77.44
2017-12-02T18:05:48.605Z,77.57
2017-12-02T18:07:50.854Z,77.64
2017-12-02T18:09:53.443Z,77.67
2017-12-02T18:11:55.215Z,77.44
2017-12-02T18:13:57.237Z,77.51
2017-12-02T18:15:59.278Z,77.51
2017-12-02T18:18:01.699Z,77.33
2017-12-02T18:20:04.391Z,77.33
2017-12-02T18:22:06.267Z,77.63
2017-12-02T18:24:08.835Z,77.49
2017-12-02T18:26:11.390Z,77.61
2017-12-02T18:28:13.461Z,77.60
2017-12-02T18:30:15.427Z,77.48
2017-12-02T18:32:17.373Z,77.50
2017-12-02T18:34:19.675Z,77.45
2017-12-02T18:36:21.259Z,77.54
2017-12-02T18:38:23.266Z,77.41
2017-12-02T18:40:25.288Z,77.45
2017-12-02T18:42:27.246Z,77.43
2017-12-02T18:44:29.251Z,77.36
2017-12-02T18:46:31.229Z,77.44
2017-12-02T18:48:33.255Z,77.46
2017-12-02T18:50:35.268Z,77.19
2017-12-02T18:52:37.263Z,77.35
2017-12-02T18:54:39.266Z,77.42
2017-12-02T18:56:41.239Z,77.37
2017-12-02T18:58:43.278Z,77.26
2017-12-02T19:00:45.266Z,77.24
2017-12-02T19:02:47.270Z,77.52
2017-12-02T19:04:49.229Z,77.57
2017-12-02T19:06:51.275Z,77.54
2017-12-02T19:08:54.300Z,77.44
2017-12-02T19:10:56.258Z,77.44
2017-12-02T19:12:58.216Z,77.36
2017-12-02T19:15:00.310Z,77.27
2017-12-02T19:17:02.269Z,77.34
2017-12-02T19:19:04.230Z,77.25
2017-12-02T19:21:06.251Z,77.34
2017-12-02T19:23:08.400Z,77.36
2017-12-02T19:25:10.277Z,77.11
2017-12-02T19:27:12.241Z,77.25
2017-12-02T19:29:14.279Z,77.22
2017-12-02T19:31:16.259Z,77.16
2017-12-02T19:33:18.251Z,77.20
2017-12-02T19:35:20.380Z,77.25
2017-12-02T19:37:22.262Z,77.24
2017-12-02T19:39:24.298Z,77.17
2017-12-02T19:43:12.727Z,77.24
2017-12-02T19:45:14.568Z,77.28
2017-12-02T19:47:16.942Z,76.74
2017-12-02T19:49:19.242Z,76.27
2017-12-02T19:51:21.593Z,75.03
2017-12-02T19:53:23.932Z,73.48
2017-12-02T19:55:25.772Z,72.52
2017-12-02T19:57:27.858Z,71.99
2017-12-02T19:59:30.323Z,71.61
2017-12-02T20:01:32.279Z,71.01
2017-12-02T20:03:34.576Z,70.49
2017-12-02T20:05:37.351Z,70.47
2017-12-02T20:07:39.915Z,69.86
2017-12-02T20:09:42.075Z,69.68
2017-12-02T20:11:44.434Z,69.45
2017-12-02T20:13:46.738Z,69.19
2017-12-02T20:15:48.878Z,69.08
2017-12-02T20:17:51.040Z,68.62
2017-12-02T20:19:55.229Z,68.65
2017-12-02T20:21:57.274Z,68.61
2017-12-02T20:23:59.701Z,68.41
2017-12-02T20:34:16.862Z,68.03
2017-12-02T20:36:18.926Z,67.67
2017-12-02T20:38:21.087Z,67.96
2017-12-02T20:40:23.664Z,67.76
2017-12-02T20:42:25.408Z,67.62
2017-12-02T20:44:27.596Z,67.54
2017-12-02T20:46:29.961Z,67.56
2017-12-02T20:48:32.433Z,67.59
2017-12-02T20:50:34.912Z,67.55
2017-12-02T20:52:37.243Z,67.45
2017-12-02T20:54:39.274Z,67.59
2017-12-02T20:56:42.503Z,67.50
2017-12-02T20:58:44.575Z,67.56
2017-12-02T21:07:16.058Z,67.33
2017-12-02T21:09:18.554Z,67.44
2017-12-02T21:11:20.787Z,67.30
2017-12-02T21:13:22.857Z,67.37
2017-12-02T21:15:25.036Z,67.45
2017-12-02T21:25:12.707Z,67.47
2017-12-02T21:27:14.691Z,67.43
2017-12-02T21:29:17.356Z,67.53
2017-12-02T21:31:22.778Z,67.45
2017-12-02T21:33:24.963Z,67.46
2017-12-02T21:35:26.925Z,67.58
2017-12-02T21:37:28.971Z,67.62
2017-12-02T21:39:30.985Z,67.56
2017-12-02T21:41:33.419Z,67.43
2017-12-02T21:43:35.384Z,67.48
2017-12-02T21:45:37.297Z,67.44
2017-12-02T21:47:39.912Z,67.53
2017-12-02T21:49:42.689Z,67.49
2017-12-02T21:51:44.840Z,67.43
2017-12-02T21:56:16.133Z,67.56
2017-12-02T21:58:18.222Z,67.58
2017-12-02T22:00:20.467Z,67.60
2017-12-02T22:02:22.730Z,67.56
2017-12-02T22:04:24.433Z,67.62
2017-12-02T22:06:26.531Z,67.58
2017-12-02T22:08:29.021Z,67.61
2017-12-02T22:10:31.399Z,67.61
2017-12-02T22:12:33.878Z,67.71
2017-12-02T22:14:35.832Z,67.64
2017-12-02T22:16:38.415Z,67.59
2017-12-02T22:18:42.025Z,67.61
2017-12-02T22:20:44.364Z,67.60
2017-12-02T22:22:46.856Z,67.85
2017-12-02T22:24:49.635Z,67.80
2017-12-02T22:26:51.890Z,67.87
2017-12-02T22:28:54.375Z,67.74
2017-12-02T22:30:56.860Z,67.85
2017-12-02T22:32:59.297Z,67.83
2017-12-02T22:35:01.899Z,67.75
2017-12-02T22:37:04.071Z,67.81
2017-12-02T22:39:46.994Z,67.92
2017-12-02T22:41:49.369Z,67.86
2017-12-02T22:43:51.289Z,67.93
2017-12-02T22:45:53.998Z,67.81
2017-12-02T22:47:56.470Z,67.77
2017-12-02T22:49:58.441Z,67.89
2017-12-02T22:52:00.902Z,67.99
2017-12-02T22:54:03.382Z,67.94
2017-12-02T22:56:05.550Z,67.99
2017-12-02T22:58:07.906Z,68.00
2017-12-02T23:00:10.701Z,68.06
2017-12-02T23:02:12.956Z,68.24
2017-12-02T23:04:15.231Z,68.20
2017-12-02T23:06:18.019Z,68.23
2017-12-02T23:08:20.905Z,68.27
2017-12-02T23:10:22.893Z,68.20
2017-12-02T23:12:25.149Z,68.36
2017-12-02T23:14:27.766Z,68.27
2017-12-02T23:16:29.959Z,68.36
2017-12-02T23:18:32.883Z,68.44
2017-12-02T23:20:35.706Z,68.40
2017-12-02T23:22:38.112Z,68.42
2017-12-02T23:24:40.888Z,68.44
2017-12-02T23:26:43.863Z,68.49
2017-12-02T23:28:46.172Z,68.56
2017-12-02T23:30:48.716Z,68.45
2017-12-02T23:32:50.860Z,68.54
2017-12-02T23:34:53.654Z,68.44
2017-12-02T23:36:55.946Z,68.54
2017-12-02T23:38:58.528Z,68.47
2017-12-02T23:41:01.067Z,68.64
2017-12-02T23:43:03.869Z,68.63
2017-12-02T23:45:05.923Z,68.66
2017-12-02T23:47:08.263Z,68.66
2017-12-02T23:51:20.644Z,68.76
2017-12-02T23:53:22.968Z,68.75
2017-12-02T23:55:25.871Z,68.87
2017-12-02T23:57:28.682Z,68.85
2017-12-02T23:59:30.947Z,68.87
